Map

Track Data

SID SEASON NUMBER BASIN SUBBASIN NAME ISO_TIME NATURE LAT LON WMO_WIND WMO_PRES WMO_AGENCY TRACK_TYPE DIST2LAND LANDFALL IFLAG USA_AGENCY USA_ATCF_ID USA_LAT USA_LON USA_RECORD USA_STATUS USA_WIND USA_PRES USA_SSHS USA_R34_NE USA_R34_SE USA_R34_SW USA_R34_NW USA_R50_NE USA_R50_SE USA_R50_SW USA_R50_NW USA_R64_NE USA_R64_SE USA_R64_SW USA_R64_NW USA_POCI USA_ROCI USA_RMW USA_EYE TOKYO_LAT TOKYO_LON TOKYO_GRADE TOKYO_WIND TOKYO_PRES TOKYO_R50_DIR TOKYO_R50_LONG TOKYO_R50_SHORT TOKYO_R30_DIR TOKYO_R30_LONG TOKYO_R30_SHORT TOKYO_LAND CMA_LAT CMA_LON CMA_CAT CMA_WIND CMA_PRES HKO_LAT HKO_LON HKO_CAT HKO_WIND HKO_PRES NEWDELHI_LAT NEWDELHI_LON NEWDELHI_GRADE NEWDELHI_WIND NEWDELHI_PRES NEWDELHI_CI NEWDELHI_DP NEWDELHI_POCI REUNION_LAT REUNION_LON REUNION_TYPE REUNION_WIND REUNION_PRES REUNION_TNUM REUNION_CI REUNION_RMW REUNION_R34_NE REUNION_R34_SE REUNION_R34_SW REUNION_R34_NW REUNION_R50_NE REUNION_R50_SE REUNION_R50_SW REUNION_R50_NW REUNION_R64_NE REUNION_R64_SE REUNION_R64_SW REUNION_R64_NW BOM_LAT BOM_LON BOM_TYPE BOM_WIND BOM_PRES BOM_TNUM BOM_CI BOM_RMW BOM_R34_NE BOM_R34_SE BOM_R34_SW BOM_R34_NW BOM_R50_NE BOM_R50_SE BOM_R50_SW BOM_R50_NW BOM_R64_NE BOM_R64_SE BOM_R64_SW BOM_R64_NW BOM_ROCI BOM_POCI BOM_EYE BOM_POS_METHOD BOM_PRES_METHOD NADI_LAT NADI_LON NADI_CAT NADI_WIND NADI_PRES WELLINGTON_LAT WELLINGTON_LON WELLINGTON_WIND WELLINGTON_PRES DS824_LAT DS824_LON DS824_STAGE DS824_WIND DS824_PRES TD9636_LAT TD9636_LON TD9636_STAGE TD9636_WIND TD9636_PRES TD9635_LAT TD9635_LON TD9635_WIND TD9635_PRES TD9635_ROCI NEUMANN_LAT NEUMANN_LON NEUMANN_CLASS NEUMANN_WIND NEUMANN_PRES MLC_LAT MLC_LON MLC_CLASS MLC_WIND MLC_PRES USA_GUST BOM_GUST BOM_GUST_PER REUNION_GUST REUNION_GUST_PER USA_SEAHGT USA_SEARAD_NE USA_SEARAD_SE USA_SEARAD_SW USA_SEARAD_NW STORM_SPEED STORM_DIR
1966093N07166 1966 24 WP MM HESTER 1966-04-03 06:00:00 NR 7.00000 166.000 main 1819 1819 ___O__________ -1 7.00000 166.000 TD 25 1000 3 315
1966093N07166 1966 24 WP MM HESTER 1966-04-03 09:00:00 NR 7.09751 165.905 main 1826 1816 ___P__________ -1 7.09751 165.905 TD 25 1000 1 243
1966093N07166 1966 24 WP MM HESTER 1966-04-03 12:00:00 TS 6.95000 165.900 main 1816 1805 __OO__________ -1 6.20000 166.200 1 23 1003 7.20000 165.800 TD 25 1000 1 209
1966093N07166 1966 24 WP MM HESTER 1966-04-03 15:00:00 TS 6.97333 165.834 main 1812 1812 __PP__________ -1 6.30502 166.158 1 23 1003 7.30748 165.673 TD 25 1000 2 294
1966093N07166 1966 24 WP MM HESTER 1966-04-03 18:00:00 TS 7.01429 165.757 main 1812 1809 __OO__________ -1 6.50000 166.100 1 23 1003 7.40000 165.500 TD 25 1000 2 313
1966093N07166 1966 24 WP MM HESTER 1966-04-03 21:00:00 TS 7.14244 165.652 main 1819 1819 __PP__________ -1 6.83495 166.002 1 26 1003 7.44992 165.302 TD 25 1000 4 325
1966093N07166 1966 24 WP MM HESTER 1966-04-04 00:00:00 TS 7.33333 165.533 main 1832 1832 O_OO_____OOO__ jtwc_wp WP011966 7.30000 165.800 20 -1 7.20000 165.800 1 29 1003 7.50000 165.000 TD 25 1000 7.30000 165.800 TC 20 7.30000 165.800 1 20 7.30000 165.800 20 1001 120 6 312
1966093N07166 1966 24 WP MM HESTER 1966-04-04 03:00:00 TS 7.52201 165.234 main 1839 1839 P_PP_____PPP__ WP011966 7.50015 165.440 17 -1 7.48754 165.438 1 29 1002 7.58496 164.560 TD 25 1000 7.50015 165.440 TC 17 7.53067 165.557 1 18 7.50015 165.440 17 1001 150 7 300
1966093N07166 1966 24 WP MM HESTER 1966-04-04 06:00:00 TS 7.70586 164.884 main 1845 1835 O_OO_____OPO__ jtwc_wp WP011966 7.70000 165.100 15 -1 7.70000 165.000 1 29 1002 7.70000 164.000 TD 25 1000 7.70000 165.100 TC 15 7.73909 165.261 1 17 7.70000 165.100 15 1001 180 8 297
1966093N07166 1966 24 WP MM HESTER 1966-04-04 09:00:00 TS 7.87283 164.532 main 1837 1822 P_PP_____PPP__ WP011966 7.88725 164.768 15 -1 7.83719 164.667 1 29 1002 7.83503 163.365 TD 25 1000 7.88725 164.768 TC 15 7.90302 164.860 1 16 7.88725 164.768 15 1001 180 9 288
1966093N07166 1966 24 WP MM HESTER 1966-04-04 12:00:00 TS 7.98333 164.017 main 1816 1771 O_OO_____OOO__ jtwc_wp WP011966 8.00000 164.300 15 -1 7.90000 164.200 1 29 1002 8.00000 162.700 TD 25 1000 8.00000 164.300 TC 15 8.00000 164.300 1 15 8.00000 164.300 15 1001 180 12 276
1966093N07166 1966 24 WP MM HESTER 1966-04-04 15:00:00 TS 7.99155 163.301 main 1771 1714 P_PP_____PPP__ WP011966 7.94999 163.582 17 -1 7.88516 163.417 1 29 1001 8.19238 162.092 TD 25 1000 7.94999 163.582 TC 17 8.02179 163.551 1 18 7.94999 163.582 17 1001 180 15 271
1966093N07166 1966 24 WP MM HESTER 1966-04-04 18:00:00 TS 8.00311 162.461 main 1714 1662 O_OO_____OPO__ jtwc_wp WP011966 7.90000 162.700 20 -1 7.90000 162.500 1 29 1001 8.40000 161.500 TD 25 1000 7.90000 162.700 TC 20 8.01868 162.668 1 22 7.90000 162.700 20 1001 180 17 274
1966093N07166 1966 24 WP MM HESTER 1966-04-04 21:00:00 TS 8.10353 161.584 main 1662 1623 P_PP_____PPP__ WP011966 7.98267 161.735 25 -1 8.03224 161.665 1 29 1000 8.58487 160.907 TD 25 1000 7.98267 161.735 TC 25 8.05608 161.726 1 26 7.98267 161.735 25 1000 180 18 280
1966093N07166 1966 24 WP MM HESTER 1966-04-05 00:00:00 TS 8.31667 160.717 main 1619 1602 O_OO_____OOO__ jtwc_wp WP011966 8.20000 160.800 30 -1 8.30000 160.800 1 29 1000 8.80000 160.300 TD 25 1000 8.20000 160.800 TC 30 8.20000 160.800 1 30 8.20000 160.800 30 1000 180 17 290
1966093N07166 1966 24 WP MM HESTER 1966-04-05 03:00:00 TS 8.67341 159.960 main 1611 1598 P_PP_____PPP__ WP011966 8.54703 160.085 32 -1 8.72763 159.828 1 29 1000 9.08484 159.672 TD 27 1000 8.54703 160.085 TC 32 8.58692 160.006 1 30 8.54703 160.085 32 1000 210 17 298
1966093N07166 1966 24 WP MM HESTER 1966-04-05 06:00:00 TS 9.11271 159.223 main 1602 1598 O_OO_____OPO__ jtwc_wp WP011966 9.00000 159.400 35 0 9.20000 158.900 1 29 1000 9.40000 159.000 TD 30 1000 9.00000 159.400 TC 35 9.07628 159.237 1 30 9.00000 159.400 35 1000 240 18 301
1966093N07166 1966 24 WP MM HESTER 1966-04-05 09:00:00 TS 9.56454 158.428 main 1605 1600 P_PP_____PPP__ WP011966 9.50755 158.558 32 -1 9.57201 158.177 1 29 1000 9.71507 158.243 TD 27 1000 9.50755 158.558 TC 32 9.57754 158.474 1 30 9.50755 158.558 32 1000 240 18 299
1966093N07166 1966 24 WP MM HESTER 1966-04-05 12:00:00 TS 9.98333 157.633 main 1605 1600 O_OO_____OOO__ jtwc_wp WP011966 10.0000 157.700 30 -1 9.90000 157.500 1 29 1001 10.0000 157.500 TD 25 1000 10.0000 157.700 TC 30 10.0000 157.700 1 30 10.0000 157.700 30 1001 240 17 297
1966093N07166 1966 24 WP MM HESTER 1966-04-05 15:00:00 TS 10.3314 156.895 main 1601 1591 P_PP_____PPP__ WP011966 10.4395 156.958 30 -1 10.2375 156.700 1 29 1001 10.2220 156.922 TD 25 1000 10.4395 156.958 TC 30 10.2101 156.872 1 28 10.4395 156.958 30 1001 240 16 291
1966093N07166 1966 24 WP MM HESTER 1966-04-05 18:00:00 TS 10.5554 156.139 main 1597 1567 O_OO_____OPO__ jtwc_wp WP011966 10.7000 156.200 30 -1 10.5000 155.900 1 29 1002 10.4000 156.300 TD 25 1000 10.7000 156.200 TC 30 10.3323 156.033 1 27 10.7000 156.200 30 1002 240 16 279
1966093N07166 1966 24 WP MM HESTER 1966-04-05 21:00:00 TS 10.5831 155.286 main 1567 1542 P_PP_____PPP__ WP011966 10.6301 155.299 27 -1 10.6372 155.192 1 29 1002 10.5578 155.422 TD 25 1000 10.6301 155.299 TC 27 10.4133 155.203 1 26 10.6301 155.299 27 1002 240 17 270
1966093N07166 1966 24 WP MM HESTER 1966-04-06 00:00:00 TS 10.5667 154.433 main 1539 1529 O_OO_____OOO__ jtwc_wp WP011966 10.5000 154.400 25 -1 10.7000 154.500 1 29 1003 10.7000 154.500 TD 25 1000 10.5000 154.400 TC 25 10.5000 154.400 1 25 10.5000 154.400 25 1003 240 16 274
1966093N07166 1966 24 WP MM HESTER 1966-04-06 03:00:00 TS 10.7035 153.679 main 1533 1503 P_PP_____PPP__ WP011966 10.6047 153.620 25 -1 10.7572 153.780 1 29 1003 10.8572 153.713 TD 25 1000 10.6047 153.620 TC 25 10.7924 153.721 1 25 10.6047 153.620 25 1003 300 18 272
1966093N07166 1966 24 WP MM HESTER 1966-04-06 06:00:00 TS 10.6326 152.613 1000 tokyo main 1502 1492 OOOO_____OPO__ jtwc_wp WP011966 10.8000 152.900 25 -1 8.60000 150.600 2 1000 0 0 0 10.8000 153.000 1 29 1003 11.0000 153.000 TD 25 1000 10.8000 152.900 TC 25 11.0789 153.059 1 25 10.8000 152.900 25 1004 360 20 268
1966093N07166 1966 24 WP MM HESTER 1966-04-06 09:00:00 TS 10.6252 151.686 main 1492 1450 PPPP_____PPP__ WP011966 11.2462 152.300 25 -1 8.60518 150.068 2 1000 0 0 10.8482 152.128 1 26 1003 11.1103 152.338 TD 25 1000 11.2462 152.300 TC 25 11.2512 152.341 1 25 11.2462 152.300 25 1003 300 19 261
1966093N07166 1966 24 WP MM HESTER 1966-04-06 12:00:00 TS 10.3333 150.719 1000 tokyo main 1436 1311 OOOO_____OOO__ jtwc_wp WP011966 11.2000 151.500 25 -1 8.60000 149.500 2 1000 0 0 0 10.9000 151.200 1 23 1004 11.2000 151.700 TD 25 1000 11.2000 151.500 TC 25 11.2000 151.500 1 25 11.2000 151.500 25 1003 240 25 239
1966093N07166 1966 24 WP MM HESTER 1966-04-06 15:00:00 TS 9.34656 149.510 main 1298 1205 PP_______PPP__ WP011966 9.70128 150.132 25 -1 8.58476 148.860 2 1000 0 0 1 TD 9.70128 150.132 TC 25 10.6548 150.416 1 26 9.70128 150.132 25 1003 240 29 232
1966093N07166 1966 24 WP MM HESTER 1966-04-06 18:00:00 TS 8.58601 148.445 1000 tokyo main 1204 1176 OO_______OPO__ jtwc_wp WP011966 8.20000 148.700 25 -1 8.60000 148.100 2 1000 0 0 0 8.20000 148.700 TC 25 9.90203 149.216 1 27 8.20000 148.700 25 1004 240 21 245
1966093N07166 1966 24 WP MM HESTER 1966-04-06 21:00:00 TS 8.45897 147.549 main 1187 1187 PP_______PPP__ WP011966 8.12179 147.693 27 -1 8.67013 147.172 2 1000 0 0 8.12179 147.693 TC 27 9.14798 147.984 1 28 8.12179 147.693 27 1003 240 18 272
1966093N07166 1966 24 WP MM HESTER 1966-04-07 00:00:00 TS 8.64286 146.671 1000 tokyo main 1199 1199 OO_______OOO__ jtwc_wp WP011966 8.60000 146.800 30 -1 8.80000 146.200 2 1000 0 0 0 8.60000 146.800 TC 30 8.60000 146.800 1 30 8.60000 146.800 30 1003 240 19 284
1966093N07166 1966 24 WP MM HESTER 1966-04-07 03:00:00 TS 8.91967 145.715 main 1236 1236 PP_______PPP__ WP011966 8.97985 145.800 32 -1 8.99215 145.343 2 1000 0 0 8.97985 145.800 TC 32 8.54086 145.747 1 32 8.97985 145.800 32 1002 210 20 286
1966093N07166 1966 24 WP MM HESTER 1966-04-07 06:00:00 TS 9.20125 144.736 1000 tokyo main 1283 1283 OO_______OPO__ jtwc_wp WP011966 9.30000 144.800 35 0 9.20000 144.500 2 1000 0 0 0 9.30000 144.800 TC 35 8.70876 144.750 1 35 9.30000 144.800 35 1002 180 19 281
1966093N07166 1966 24 WP MM HESTER 1966-04-07 09:00:00 TS 9.30083 143.783 main 1314 1314 PP_______PPP__ WP011966 9.34462 143.850 37 0 9.36477 143.615 2 1000 0 0 9.34462 143.850 TC 37 8.99730 143.803 1 37 9.34462 143.850 37 1001 180 19 274
1966093N07166 1966 24 WP MM HESTER 1966-04-07 12:00:00 TS 9.34286 142.843 1000 tokyo main 1323 1299 OO_______OOO__ jtwc_wp WP011966 9.30000 142.900 40 0 9.50000 142.700 2 1000 0 0 0 9.30000 142.900 TC 40 9.30000 142.900 2 40 9.30000 142.900 40 1000 180 19 273
1966093N07166 1966 24 WP MM HESTER 1966-04-07 15:00:00 TS 9.41013 141.877 main 1299 1281 PP_______PPP__ WP011966 9.31267 141.855 37 0 9.60763 141.712 2 1000 0 0 9.31267 141.855 TC 37 9.42818 141.995 2 38 9.31267 141.855 37 999 210 18 276
1966093N07166 1966 24 WP MM HESTER 1966-04-07 18:00:00 TS 9.52206 140.991 1000 tokyo main 1281 1267 OO_______OPO__ jtwc_wp WP011966 9.40000 140.900 35 0 9.70000 140.800 2 1000 0 0 0 9.40000 140.900 TC 35 9.55441 141.137 2 37 9.40000 140.900 35 999 240 16 280
1966093N07166 1966 24 WP MM HESTER 1966-04-07 21:00:00 TS 9.69380 140.256 main 1273 1263 PP_______PPP__ WP011966 9.60464 140.175 35 0 9.77712 140.097 2 1000 0 0 9.60464 140.175 TC 35 9.70342 140.335 2 36 9.60464 140.175 35 998 210 14 287
1966093N07166 1966 24 WP MM HESTER 1966-04-08 00:00:00 TS 9.92857 139.629 1000 tokyo main 1267 1267 OO_______OOO__ jtwc_wp WP011966 9.90000 139.600 35 0 9.90000 139.500 2 1000 0 0 0 9.90000 139.600 TC 35 9.90000 139.600 2 35 9.90000 139.600 35 997 180 13 294
1966093N07166 1966 24 WP MM HESTER 1966-04-08 03:00:00 TS 10.2222 139.070 main 1281 1278 PP_______PPP__ WP011966 10.2422 139.107 35 0 10.1273 138.900 2 999 0 0 10.2422 139.107 TC 35 10.2099 138.960 2 37 10.2422 139.107 35 996 180 13 299
1966093N07166 1966 24 WP MM HESTER 1966-04-08 06:00:00 TS 10.5376 138.511 998 tokyo main 1295 1288 OO_______OPO__ jtwc_wp WP011966 10.6000 138.600 35 0 10.4000 138.300 9 998 0 0 0 10.6000 138.600 TC 35 10.5631 138.378 2 40 10.6000 138.600 35 995 180 13 298
1966093N07166 1966 24 WP MM HESTER 1966-04-08 09:00:00 TS 10.8574 137.863 main 1291 1222 PP_______PPP__ WP011966 10.9674 137.953 40 0 10.6648 137.672 9 998 0 0 10.9674 137.953 TC 40 10.9099 137.807 2 42 10.9674 137.953 40 995 180 15 292
1966093N07166 1966 24 WP MM HESTER 1966-04-08 12:00:00 TS 11.0857 137.143 998 tokyo main 1211 1136 OO_______OOO__ jtwc_wp WP011966 11.2000 137.200 45 0 10.9000 137.000 9 998 0 0 0 11.2000 137.200 TC 45 11.2000 137.200 2 45 11.2000 137.200 45 996 180 15 278
1966093N07166 1966 24 WP MM HESTER 1966-04-08 15:00:00 TS 11.0805 136.338 main 1125 1051 PP_______PPP__ WP011966 11.1002 136.342 45 0 11.0576 136.242 9 997 0 0 11.1002 136.342 TC 45 11.3204 136.463 2 45 11.1002 136.342 45 997 180 16 269
1966093N07166 1966 24 WP MM HESTER 1966-04-08 18:00:00 TS 11.0694 135.541 996 tokyo main 1040 978 OO_______OPO__ jtwc_wp WP011966 11.0000 135.500 45 0 11.2000 135.500 9 996 0 0 0 11.0000 135.500 TC 45 11.3856 135.690 2 45 11.0000 135.500 45 999 180 15 276
1966093N07166 1966 24 WP MM HESTER 1966-04-08 21:00:00 TS 11.2467 134.835 main 968 912 PP_______PPP__ WP011966 11.2098 134.790 45 0 11.3398 134.862 9 996 0 0 11.2098 134.790 TC 45 11.4579 134.923 2 45 11.2098 134.790 45 997 180 14 291
1966093N07166 1966 24 WP MM HESTER 1966-04-09 00:00:00 TS 11.5714 134.214 996 tokyo main 915 868 OO_______OOO__ jtwc_wp WP011966 11.6000 134.200 45 0 11.6000 134.300 9 996 0 0 0 11.6000 134.200 TC 45 11.6000 134.200 2 45 11.6000 134.200 45 995 180 14 306
1966093N07166 1966 24 WP MM HESTER 1966-04-09 03:00:00 TS 12.0439 133.699 main 868 823 PP_______PPP__ WP011966 12.1070 133.757 45 0 12.1196 133.822 9 995 0 0 12.1070 133.757 TC 45 11.9196 133.559 2 46 12.1070 133.757 45 991 180 14 314
1966093N07166 1966 24 WP MM HESTER 1966-04-09 06:00:00 TS 12.5445 133.181 994 tokyo main 823 770 OO_______OPO__ jtwc_wp WP011966 12.6000 133.300 45 0 12.7000 133.300 9 994 0 0 0 12.6000 133.300 TC 45 12.3117 132.969 2 47 12.6000 133.300 45 987 180 15 308
1966093N07166 1966 24 WP MM HESTER 1966-04-09 09:00:00 TS 12.9359 132.515 main 759 703 PP_______PPP__ WP011966 12.8877 132.622 47 0 13.1678 132.550 9 993 0 0 12.8877 132.622 TC 47 12.7229 132.419 2 48 12.8877 132.622 47 987 210 15 298
1966093N07166 1966 24 WP MM HESTER 1966-04-09 12:00:00 TS 13.2429 131.843 992 tokyo main 692 645 OO_______OOO__ jtwc_wp WP011966 13.1000 131.900 50 0 13.5000 131.800 9 992 0 0 0 13.1000 131.900 TC 50 13.1000 131.900 2 50 13.1000 131.900 50 988 240 13 294
1966093N07166 1966 24 WP MM HESTER 1966-04-09 15:00:00 TS 13.4739 131.263 main 645 595 PP_______PPP__ WP011966 13.3575 131.248 50 0 13.6372 131.247 9 991 0 0 13.3575 131.248 TC 50 13.3678 131.371 2 53 13.3575 131.248 50 987 240 11 292
1966093N07166 1966 24 WP MM HESTER 1966-04-09 18:00:00 TS 13.6564 130.768 990 tokyo main 598 560 OO_______OPO__ jtwc_wp WP011966 13.6000 130.700 50 0 13.7000 130.800 9 990 0 0 0 13.6000 130.700 TC 50 13.5947 130.874 2 57 13.6000 130.700 50 987 240 10 292
1966093N07166 1966 24 WP MM HESTER 1966-04-09 21:00:00 TS 13.8323 130.340 main 550 527 PP_______PPP__ WP011966 13.8073 130.297 57 0 13.8349 130.370 9 989 0 0 13.8073 130.297 TC 57 13.7992 130.415 2 61 13.8073 130.297 57 988 270 8 295
1966093N07166 1966 24 WP MM HESTER 1966-04-10 00:00:00 TS 14.0143 129.986 988 tokyo main 527 507 OO_______OOO__ jtwc_wp WP011966 14.0000 130.000 65 1 14.0000 130.000 9 988 0 0 0 14.0000 130.000 TC 65 14.0000 130.000 3 65 14.0000 130.000 65 990 300 7 303
1966093N07166 1966 24 WP MM HESTER 1966-04-10 03:00:00 TS 14.2332 129.693 main 507 488 PP_______PPP__ WP011966 14.1923 129.757 65 1 14.1923 129.707 9 988 0 0 14.1923 129.757 TC 65 14.2285 129.640 3 66 14.1923 129.757 65 991 300 7 309
1966093N07166 1966 24 WP MM HESTER 1966-04-10 06:00:00 TS 14.4653 129.403 988 tokyo main 494 473 OO_______OPO__ jtwc_wp WP011966 14.4000 129.500 65 1 14.4000 129.400 9 988 0 0 0 14.4000 129.500 TC 65 14.4568 129.319 3 67 14.4000 129.500 65 992 300 8 306
1966093N07166 1966 24 WP MM HESTER 1966-04-10 09:00:00 TS 14.6913 129.032 main 470 459 PP_______PPP__ WP011966 14.6425 129.130 67 1 14.5926 128.965 9 988 0 0 14.6425 129.130 TC 67 14.6817 129.015 3 68 14.6425 129.130 67 992 270 9 301
1966093N07166 1966 24 WP MM HESTER 1966-04-10 12:00:00 TS 14.9143 128.629 988 tokyo main 451 430 OO_______OOO__ jtwc_wp WP011966 14.9000 128.700 70 1 14.8000 128.500 9 988 0 0 0 14.9000 128.700 TC 70 14.9000 128.700 4 70 14.9000 128.700 70 992 240 9 300
1966093N07166 1966 24 WP MM HESTER 1966-04-10 15:00:00 TS 15.1353 128.221 main 430 398 PP_______PPP__ WP011966 15.1651 128.235 75 1 15.0497 128.122 9 988 0 0 15.1651 128.235 TC 75 15.0951 128.319 4 73 15.1651 128.235 75 993 240 9 299
1966093N07166 1966 24 WP MM HESTER 1966-04-10 18:00:00 TS 15.3407 127.818 988 tokyo main 398 369 OO_______OPO__ jtwc_wp WP011966 15.4000 127.800 80 1 15.3000 127.700 9 988 0 0 0 15.4000 127.800 TC 80 15.2852 127.927 4 77 15.4000 127.800 80 994 240 9 296
1966093N07166 1966 24 WP MM HESTER 1966-04-10 21:00:00 TS 15.5118 127.419 main 369 347 PP_______PPP__ WP011966 15.5498 127.477 82 1 15.5155 127.040 9 988 0 0 15.5498 127.477 TC 82 15.4827 127.547 4 81 15.5498 127.477 82 993 240 8 296
1966093N07166 1966 24 WP MM HESTER 1966-04-11 00:00:00 TS 15.6857 127.071 988 tokyo main 353 341 OO_______OOO__ jtwc_wp WP011966 15.7000 127.200 85 2 15.7000 126.500 9 988 0 0 0 15.7000 127.200 TC 85 15.7000 127.200 4 85 15.7000 127.200 85 993 240 7 303
1966093N07166 1966 24 WP MM HESTER 1966-04-11 03:00:00 TS 15.8937 126.811 main 341 341 PP_______PPP__ WP011966 15.9275 126.885 80 1 15.8422 126.425 9 988 0 0 15.9275 126.885 TC 80 15.9613 126.902 4 80 15.9275 126.885 80 992 210 6 315
1966093N07166 1966 24 WP MM HESTER 1966-04-11 06:00:00 TS 16.1346 126.606 988 tokyo main 341 341 OO_______OPO__ jtwc_wp WP011966 16.2000 126.600 75 1 16.0000 126.500 9 988 0 0 0 16.2000 126.600 TC 75 16.2422 126.640 4 75 16.2000 126.600 75 991 180 6 324
1966093N07166 1966 24 WP MM HESTER 1966-04-11 09:00:00 TS 16.4074 126.417 main 350 350 PP_______PPP__ WP011966 16.4924 126.392 70 1 16.2125 126.437 9 988 0 0 16.4924 126.392 TC 70 16.5270 126.408 4 70 16.4924 126.392 70 991 210 7 327
1966093N07166 1966 24 WP MM HESTER 1966-04-11 12:00:00 TS 16.7000 126.229 988 tokyo main 364 364 OO_______OOO__ jtwc_wp WP011966 16.8000 126.200 65 1 16.5000 126.300 9 988 0 0 0 16.8000 126.200 TC 65 16.8000 126.200 4 65 16.8000 126.200 65 991 240 7 325
1966093N07166 1966 24 WP MM HESTER 1966-04-11 15:00:00 TS 17.0056 125.981 main 372 351 PP_______PPP__ WP011966 17.1226 125.935 65 1 16.9001 126.058 9 988 0 0 17.1226 125.935 TC 65 17.0637 125.979 4 66 17.1226 125.935 65 989 270 7 322
1966093N07166 1966 24 WP MM HESTER 1966-04-11 18:00:00 TS 17.2871 125.755 988 tokyo main 352 332 OO_______OPO__ jtwc_wp WP011966 17.4000 125.700 65 1 17.3000 125.800 9 988 0 0 0 17.4000 125.700 TC 65 17.3099 125.783 4 67 17.4000 125.700 65 988 300 6 325
1966093N07166 1966 24 WP MM HESTER 1966-04-11 21:00:00 TS 17.5194 125.605 main 333 325 PP_______PPP__ WP011966 17.5950 125.562 67 1 17.5950 125.620 9 988 0 0 17.5950 125.562 TC 67 17.5262 125.620 4 68 17.5950 125.562 67 988 240 5 330
1966093N07166 1966 24 WP MM HESTER 1966-04-12 00:00:00 TS 17.6857 125.514 988 tokyo main 327 327 OO_______OOO__ jtwc_wp WP011966 17.7000 125.500 70 1 17.8000 125.500 9 988 0 0 0 17.7000 125.500 TC 70 17.7000 125.500 4 70 17.7000 125.500 70 988 180 3 331
1966093N07166 1966 24 WP MM HESTER 1966-04-12 03:00:00 TS 17.7653 125.468 main 330 320 PP_______PPP__ WP011966 17.7000 125.492 70 1 17.9300 125.442 9 988 0 0 17.7000 125.492 TC 70 17.7896 125.432 4 73 17.7000 125.492 70 985 180 2 331
1966093N07166 1966 24 WP MM HESTER 1966-04-12 06:00:00 TS 17.8203 125.444 988 tokyo main 320 320 OO_______OPO__ jtwc_wp WP011966 17.7000 125.500 70 1 18.0000 125.400 9 988 0 0 0 17.7000 125.500 TC 70 17.8424 125.405 4 77 17.7000 125.500 70 983 180 2 334
1966093N07166 1966 24 WP MM HESTER 1966-04-12 09:00:00 TS 17.9206 125.390 main 323 317 PP_______PPP__ WP011966 17.8200 125.458 77 1 18.0425 125.278 9 989 0 0 17.8200 125.458 TC 77 17.8990 125.400 4 81 17.8200 125.458 77 984 180 3 337
1966093N07166 1966 24 WP MM HESTER 1966-04-12 12:00:00 TS 18.0571 125.343 990 tokyo main 317 317 OO_______OOO__ jtwc_wp WP011966 18.0000 125.400 85 2 18.1000 125.200 9 990 0 0 0 18.0000 125.400 TC 85 18.0000 125.400 4 85 18.0000 125.400 85 985 180 3 347
1966093N07166 1966 24 WP MM HESTER 1966-04-12 15:00:00 TS 18.2263 125.322 main 317 316 PP_______PPP__ WP011966 18.1775 125.343 82 1 18.2275 125.285 9 990 0 0 18.1775 125.343 TC 82 18.2038 125.363 4 83 18.1775 125.343 82 986 180 4 358
1966093N07166 1966 24 WP MM HESTER 1966-04-12 18:00:00 TS 18.4364 125.318 990 tokyo main 316 316 OO_______OPO__ jtwc_wp WP011966 18.4000 125.300 80 1 18.4000 125.400 9 990 0 0 0 18.4000 125.300 TC 80 18.4550 125.328 4 82 18.4000 125.300 80 988 180 5 358
1966093N07166 1966 24 WP MM HESTER 1966-04-12 21:00:00 TS 18.6873 125.318 main 318 318 PP_______PPP__ WP011966 18.6925 125.285 80 1 18.5775 125.408 9 990 0 0 18.6925 125.285 TC 80 18.7288 125.304 4 81 18.6925 125.285 80 990 210 5 0
1966093N07166 1966 24 WP MM HESTER 1966-04-13 00:00:00 TS 18.9571 125.329 990 tokyo main 323 323 OO_______OOO__ jtwc_wp WP011966 19.0000 125.300 80 1 18.8000 125.400 9 990 0 0 0 19.0000 125.300 TC 80 19.0000 125.300 4 80 19.0000 125.300 80 993 240 5 4
1966093N07166 1966 24 WP MM HESTER 1966-04-13 03:00:00 TS 19.2270 125.352 main 338 338 PP_______PPP__ WP011966 19.2650 125.342 80 1 19.1225 125.450 9 992 0 0 19.2650 125.342 TC 80 19.2566 125.336 4 76 19.2650 125.342 80 995 240 5 6
1966093N07166 1966 24 WP MM HESTER 1966-04-13 06:00:00 TS 19.4718 125.385 994 tokyo main 348 348 OO_______OPO__ jtwc_wp WP011966 19.5000 125.400 80 1 19.4000 125.500 9 994 0 0 0 19.5000 125.400 TC 80 19.5025 125.392 4 72 19.5000 125.400 80 997 240 4 9
1966093N07166 1966 24 WP MM HESTER 1966-04-13 09:00:00 TS 19.6589 125.424 main 356 356 PP_______PPP__ WP011966 19.7150 125.457 72 1 19.4575 125.508 9 994 0 0 19.7150 125.457 TC 72 19.7222 125.452 4 68 19.7150 125.457 72 996 210 4 11
1966093N07166 1966 24 WP MM HESTER 1966-04-13 12:00:00 TS 19.8143 125.457 994 tokyo main 370 370 OO_______OOO__ jtwc_wp WP011966 19.9000 125.500 65 1 19.5000 125.500 9 994 0 0 0 19.9000 125.500 TC 65 19.9000 125.500 4 65 19.9000 125.500 65 996 180 3 6
1966093N07166 1966 24 WP MM HESTER 1966-04-13 15:00:00 TS 19.9735 125.468 main 380 380 PP_______PPP__ WP011966 20.0800 125.508 55 0 19.7200 125.500 9 994 0 0 20.0800 125.508 TC 55 19.9897 125.502 4 60 20.0800 125.508 55 994 180 3 0
1966093N07166 1966 24 WP MM HESTER 1966-04-13 18:00:00 TS 20.1061 125.470 994 tokyo main 386 386 OO_______OPO__ jtwc_wp WP011966 20.2000 125.500 45 0 20.0000 125.500 9 994 0 0 0 20.2000 125.500 TC 45 20.0425 125.493 4 55 20.2000 125.500 45 993 180 2 4
1966093N07166 1966 24 WP MM HESTER 1966-04-13 21:00:00 TS 20.1824 125.477 main 391 391 PP_______PPP__ WP011966 20.2000 125.500 45 0 20.2650 125.500 9 996 0 0 20.2000 125.500 TC 45 20.0990 125.487 4 50 20.2000 125.500 45 994 210 2 0
1966093N07166 1966 24 WP MM HESTER 1966-04-14 00:00:00 TS 20.2714 125.486 998 tokyo main 397 397 OO_______OOO__ jtwc_wp WP011966 20.2000 125.500 45 0 20.5000 125.500 9 998 0 0 0 20.2000 125.500 TC 45 20.2000 125.500 2 45 20.2000 125.500 45 996 240 2 3
1966093N07166 1966 24 WP MM HESTER 1966-04-14 03:00:00 TS 20.4226 125.483 main 403 403 PP_______PPP__ WP011966 20.2975 125.478 45 0 20.6350 125.478 9 998 0 0 20.2975 125.478 TC 45 20.3757 125.544 2 41 20.2975 125.478 45 997 240 4 2
1966093N07166 1966 24 WP MM HESTER 1966-04-14 06:00:00 TS 20.6402 125.509 998 tokyo main 415 415 OO_______OPO__ jtwc_wp WP011966 20.5000 125.500 45 0 20.8000 125.500 9 998 0 0 0 20.5000 125.500 TC 45 20.6151 125.614 2 37 20.5000 125.500 45 998 240 5 10
1966093N07166 1966 24 WP MM HESTER 1966-04-14 09:00:00 TS 20.9240 125.577 main 444 444 PP_______PPP__ WP011966 20.7899 125.598 37 0 21.1044 125.538 9 998 0 0 20.7899 125.598 TC 37 20.8970 125.703 2 33 20.7899 125.598 37 998 240 7 19
1966093N07166 1966 24 WP MM HESTER 1966-04-14 12:00:00 TS 21.3105 125.758 998 tokyo main 489 489 OO_______OOO__ jtwc_wp WP011966 21.2000 125.800 30 -1 21.5000 125.800 9 998 0 0 0 21.2000 125.800 TC 30 21.2000 125.800 1 30 21.2000 125.800 30 999 240 10 33
1966093N07166 1966 24 WP MM HESTER 1966-04-14 15:00:00 TS 21.7519 126.143 main 504 504 PP_______P_P__ WP011966 21.7202 126.117 25 -1 21.9203 126.445 9 999 0 0 21.7202 126.117 TC 25 1 21.7202 126.117 25 1000 240 13 46
1966093N07166 1966 24 WP MM HESTER 1966-04-14 18:00:00 TS 22.2273 126.791 1000 tokyo main 562 556 OO_______O_O__ jtwc_wp WP011966 22.3000 126.500 20 -1 22.4000 127.300 9 1000 0 0 0 22.3000 126.500 TC 20 1 22.3000 126.500 20 1002 240 19 56
1966093N07166 1966 24 WP MM HESTER 1966-04-14 21:00:00 TS 22.8316 127.870 main 639 636 _P____________ WP011966 -1 22.9416 128.098 9 1000 0 0 TC 1 24 58
1966093N07166 1966 24 WP MM HESTER 1966-04-15 00:00:00 TS 23.5000 129.000 1000 tokyo main 728 728 _O____________ -1 23.5000 129.000 2 1000 0 0 0 24 60
1966093N07166 1966 24 WP MM HESTER 1966-04-15 03:00:00 TS 24.0327 130.096 main 783 726 _P____________ -1 24.0064 130.019 2 1000 0 0 23 64
1966093N07166 1966 24 WP MM HESTER 1966-04-15 06:00:00 TS 24.5000 131.250 1000 tokyo main 728 698 _O____________ -1 24.5000 131.200 2 1000 0 0 0 23 68
1966093N07166 1966 24 WP MM HESTER 1966-04-15 09:00:00 TS 24.9165 132.464 main 703 692 _P____________ -1 25.0005 132.578 2 1002 0 0 24 69
1966093N07166 1966 24 WP MM HESTER 1966-04-15 12:00:00 TS 25.3500 133.750 1004 tokyo main 694 693 _O____________ -1 25.5000 134.000 2 1004 0 0 0 26 68
1966093N07166 1966 24 WP MM HESTER 1966-04-15 15:00:00 TS 25.8740 135.103 main 711 711 _P____________ -1 26.0009 135.293 2 1005 0 0 27 66
1966093N07166 1966 24 WP MM HESTER 1966-04-15 18:00:00 TS 26.4500 136.500 1006 tokyo main 737 _O____________ -1 26.5000 136.500 2 1006 0 0 0 28 65

Digital Typhoon Data and Search

About IBTrACS Database

This database is a web-friendly format of International Best Track Archive for Climate Stewardship (IBTrACS), a global best track data archive curated by NOAA dating back to 1842.

Updated: 2021-10-19